Time;durP1;ratioP1;P1;durP2;ratioP2;P2;SDS_P1;SDS_P2;PMS_P1;PMS_P2;Temp;Humidity;BMP_temperature;BMP_pressure;BME280_temperature;BME280_humidity;BME280_pressure;Samples;Min_cycle;Max_cycle;Signal;HPM_P1;HPM_P2
2022/07/27 00:00:06;;;;;;;5.4;8.3;;;;;;;14.3;100;98400;;;;
2022/07/27 00:10:06;;;;;;;5.4;8.3;;;;;;;14.2;100;98400;;;;
2022/07/27 00:20:06;;;;;;;5.7;9.1;;;;;;;14.1;100;98390;;;;
2022/07/27 00:31:06;;;;;;;5.7;9.1;;;;;;;13.9;100;98400;;;;
2022/07/27 00:41:06;;;;;;;5.7;9.1;;;;;;;13.7;100;98410;;;;
2022/07/27 00:52:06;;;;;;;4.5;7.9;;;;;;;13.7;100;98400;;;;
2022/07/27 01:03:06;;;;;;;4.5;7.9;;;;;;;13.7;100;98410;;;;
2022/07/27 01:13:06;;;;;;;4.5;7.9;;;;;;;13.5;100;98410;;;;
2022/07/27 01:23:06;;;;;;;4.5;7.4;;;;;;;13.5;100;98410;;;;
2022/07/27 01:34:06;;;;;;;4.5;7.4;;;;;;;13.6;100;98410;;;;
2022/07/27 01:44:06;;;;;;;4.5;7.4;;;;;;;13.4;100;98400;;;;
2022/07/27 01:54:06;;;;;;;4.6;8.9;;;;;;;13.3;100;98400;;;;
2022/07/27 02:05:06;;;;;;;4.6;8.9;;;;;;;13.2;100;98410;;;;
2022/07/27 02:15:06;;;;;;;4.6;8.9;;;;;;;13.1;100;98410;;;;
2022/07/27 02:26:06;;;;;;;4.3;6.9;;;;;;;12.9;100;98410;;;;
2022/07/27 02:36:05;;;;;;;4.3;6.9;;;;;;;13;100;98420;;;;
2022/07/27 02:46:06;;;;;;;4.3;6.9;;;;;;;12.9;100;98430;;;;
2022/07/27 02:57:06;;;;;;;3.9;7;;;;;;;12.8;100;98430;;;;
2022/07/27 03:08:06;;;;;;;3.9;7;;;;;;;12.8;100;98450;;;;
2022/07/27 03:18:06;;;;;;;3.6;7.6;;;;;;;12.8;100;98440;;;;
2022/07/27 03:29:05;;;;;;;3.6;7.6;;;;;;;12.9;100;98450;;;;
2022/07/27 03:40:06;;;;;;;3.6;7.6;;;;;;;13.1;100;98460;;;;
2022/07/27 03:50:05;;;;;;;4.2;7.1;;;;;;;13.1;100;98460;;;;
2022/07/27 04:00:07;;;;;;;4.2;7.1;;;;;;;13.2;100;98460;;;;
2022/07/27 04:11:05;;;;;;;4.2;7.1;;;;;;;13.4;100;98480;;;;
2022/07/27 04:21:05;;;;;;;5.6;9.7;;;;;;;13.6;100;98470;;;;
2022/07/27 04:32:06;;;;;;;5.6;9.7;;;;;;;13.9;100;98470;;;;
2022/07/27 04:42:05;;;;;;;5.6;9.7;;;;;;;14.3;100;98480;;;;
2022/07/27 04:53:05;;;;;;;4.6;7.1;;;;;;;14.6;100;98490;;;;
2022/07/27 05:04:06;;;;;;;4.6;7.1;;;;;;;15.1;100;98500;;;;
2022/07/27 05:15:05;;;;;;;4.6;7.1;;;;;;;15.6;100;98500;;;;
2022/07/27 05:25:05;;;;;;;5.6;9.5;;;;;;;16;100;98500;;;;
2022/07/27 05:35:06;;;;;;;5.6;9.5;;;;;;;16.5;100;98520;;;;
2022/07/27 05:45:05;;;;;;;5.6;9.5;;;;;;;16.5;100;98520;;;;
2022/07/27 05:56:06;;;;;;;6.8;11.1;;;;;;;17.2;100;98520;;;;
2022/07/27 06:17:06;;;;;;;6.8;11.1;;;;;;;17.9;100;98550;;;;
2022/07/27 06:28:06;;;;;;;11.5;15.1;;;;;;;18.1;100;98550;;;;
2022/07/27 06:39:05;;;;;;;11.5;15.1;;;;;;;18.3;100;98560;;;;
2022/07/27 06:49:05;;;;;;;14.4;18.4;;;;;;;18.4;100;98550;;;;
2022/07/27 07:00:05;;;;;;;14.4;18.4;;;;;;;18.7;100;98550;;;;
2022/07/27 07:11:05;;;;;;;14.4;18.4;;;;;;;19.3;100;98570;;;;
2022/07/27 07:21:05;;;;;;;15.6;21.4;;;;;;;19.5;100;98580;;;;
2022/07/27 07:32:05;;;;;;;15.6;21.4;;;;;;;19.2;100;98580;;;;
2022/07/27 07:42:05;;;;;;;15.6;21.4;;;;;;;19.5;100;98590;;;;
2022/07/27 07:53:05;;;;;;;16.7;22.8;;;;;;;20;100;98610;;;;
2022/07/27 08:03:05;;;;;;;16.7;22.8;;;;;;;20.4;100;98620;;;;
2022/07/27 08:14:05;;;;;;;16.7;22.8;;;;;;;20.7;100;98620;;;;
2022/07/27 08:25:05;;;;;;;16.2;18.8;;;;;;;21.1;100;98620;;;;
2022/07/27 08:35:05;;;;;;;16.2;18.8;;;;;;;21.6;100;98610;;;;
2022/07/27 08:46:05;;;;;;;16.2;18.8;;;;;;;22.2;100;98620;;;;
2022/07/27 08:57:05;;;;;;;14.6;19.5;;;;;;;22.9;100;98610;;;;
2022/07/27 09:08:05;;;;;;;14.6;19.5;;;;;;;22.7;100;98610;;;;
2022/07/27 09:19:05;;;;;;;14.2;17.9;;;;;;;23.8;100;98610;;;;
2022/07/27 09:29:05;;;;;;;14.2;17.9;;;;;;;24.2;100;98600;;;;
2022/07/27 09:40:05;;;;;;;14.2;17.9;;;;;;;23.7;100;98590;;;;
2022/07/27 09:50:05;;;;;;;13.8;20.2;;;;;;;23.8;100;98580;;;;
2022/07/27 10:01:05;;;;;;;13.8;20.2;;;;;;;24.5;100;98580;;;;
2022/07/27 10:11:05;;;;;;;13.8;20.2;;;;;;;24;100;98580;;;;
2022/07/27 10:22:05;;;;;;;12.2;18.5;;;;;;;24;100;98570;;;;
2022/07/27 10:32:05;;;;;;;12.2;18.5;;;;;;;24.1;100;98570;;;;
2022/07/27 10:42:05;;;;;;;12.2;18.5;;;;;;;24.1;100;98570;;;;
2022/07/27 10:53:05;;;;;;;6.8;10.5;;;;;;;24.3;100;98580;;;;
2022/07/27 11:03:05;;;;;;;6.8;10.5;;;;;;;24.2;100;98580;;;;
2022/07/27 11:14:05;;;;;;;6.8;10.5;;;;;;;24.5;100;98570;;;;
2022/07/27 11:24:06;;;;;;;3.8;6.8;;;;;;;24.3;100;98550;;;;
2022/07/27 11:34:05;;;;;;;3.8;6.8;;;;;;;24.3;100;98540;;;;
2022/07/27 11:45:05;;;;;;;3.8;6.8;;;;;;;24.6;100;98530;;;;
2022/07/27 11:56:05;;;;;;;4.8;7.7;;;;;;;24.9;100;98530;;;;
2022/07/27 12:06:05;;;;;;;4.8;7.7;;;;;;;25;100;98530;;;;
2022/07/27 12:16:05;;;;;;;4.8;7.7;;;;;;;26;96.4;98520;;;;
2022/07/27 12:27:05;;;;;;;3.5;6;;;;;;;26.4;94.9;98510;;;;
2022/07/27 12:37:05;;;;;;;3.5;6;;;;;;;25.7;100;98510;;;;
2022/07/27 12:48:05;;;;;;;3.5;6;;;;;;;27.1;94.2;98510;;;;
2022/07/27 12:59:05;;;;;;;3.6;7;;;;;;;27.2;96.6;98510;;;;
2022/07/27 13:09:05;;;;;;;3.6;7;;;;;;;27.6;95.6;98510;;;;
2022/07/27 13:19:05;;;;;;;4.4;6.8;;;;;;;28.1;93.9;98500;;;;
2022/07/27 13:30:05;;;;;;;4.4;6.8;;;;;;;28.2;96.4;98510;;;;
2022/07/27 13:41:06;;;;;;;4.4;6.8;;;;;;;28;89;98500;;;;
2022/07/27 13:51:05;;;;;;;3.9;6.9;;;;;;;27.2;94.4;98480;;;;
2022/07/27 14:02:05;;;;;;;3.9;6.9;;;;;;;27.4;93.1;98480;;;;
2022/07/27 14:12:05;;;;;;;3.9;6.9;;;;;;;27.3;92.9;98470;;;;
2022/07/27 14:23:05;;;;;;;4.1;7.1;;;;;;;27.3;94.8;98460;;;;
2022/07/27 14:33:05;;;;;;;4.1;7.1;;;;;;;27.6;89.7;98470;;;;
2022/07/27 14:43:05;;;;;;;4.1;7.1;;;;;;;27.4;90.6;98460;;;;
2022/07/27 14:54:06;;;;;;;3.9;6.9;;;;;;;27.1;86.9;98470;;;;
2022/07/27 15:04:05;;;;;;;3.9;6.9;;;;;;;26.7;90.7;98460;;;;
2022/07/27 15:15:05;;;;;;;3.9;6.9;;;;;;;26.4;91.2;98450;;;;
2022/07/27 15:25:05;;;;;;;4.2;7;;;;;;;26.6;89.9;98450;;;;
2022/07/27 15:35:05;;;;;;;4.2;7;;;;;;;26.4;90.9;98440;;;;
2022/07/27 15:46:07;;;;;;;4.2;7;;;;;;;26.2;92.1;98450;;;;
2022/07/27 15:57:08;;;;;;;4.4;7.4;;;;;;;26.1;95.5;98440;;;;
2022/07/27 16:07:05;;;;;;;4.4;7.4;;;;;;;25.9;93.7;98430;;;;
2022/07/27 16:18:05;;;;;;;4.4;7.4;;;;;;;26.1;100;98430;;;;
2022/07/27 16:29:05;;;;;;;6.3;9.1;;;;;;;26.5;95.6;98420;;;;
2022/07/27 16:39:05;;;;;;;6.3;9.1;;;;;;;27.5;89.6;98430;;;;
2022/07/27 16:50:07;;;;;;;4;6.9;;;;;;;28.6;86;98420;;;;
2022/07/27 17:00:06;;;;;;;4;6.9;;;;;;;30;84.1;98420;;;;
2022/07/27 17:11:05;;;;;;;4;6.9;;;;;;;29;87.5;98430;;;;
2022/07/27 17:22:05;;;;;;;3.8;7;;;;;;;28.9;83.8;98430;;;;
2022/07/27 17:33:05;;;;;;;3.8;7;;;;;;;27;91.2;98420;;;;
2022/07/27 17:44:05;;;;;;;3.8;7;;;;;;;25.6;98.2;98420;;;;
2022/07/27 17:54:05;;;;;;;3.7;7.3;;;;;;;24.4;100;98420;;;;
2022/07/27 18:04:05;;;;;;;3.7;7.3;;;;;;;23.5;100;98430;;;;
2022/07/27 18:16:10;;;;;;;3.7;7.3;;;;;;;22.5;100;98430;;;;
2022/07/27 18:25:05;;;;;;;5.3;9.7;;;;;;;21.8;100;98450;;;;
2022/07/27 18:35:05;;;;;;;5.3;9.7;;;;;;;21.5;100;98470;;;;
2022/07/27 18:46:05;;;;;;;5.3;9.7;;;;;;;21.2;100;98490;;;;
2022/07/27 18:56:05;;;;;;;6.8;10.7;;;;;;;21.1;100;98500;;;;
2022/07/27 19:06:05;;;;;;;6.8;10.7;;;;;;;20.7;100;98500;;;;
2022/07/27 19:16:05;;;;;;;6.8;10.7;;;;;;;20.3;100;98510;;;;
2022/07/27 19:26:05;;;;;;;7;9.5;;;;;;;20.1;100;98530;;;;
2022/07/27 19:37:05;;;;;;;7;9.5;;;;;;;19.7;100;98540;;;;
2022/07/27 19:47:05;;;;;;;7;9.5;;;;;;;19.5;100;98550;;;;
2022/07/27 19:58:05;;;;;;;2.9;5.3;;;;;;;19.4;100;98550;;;;
2022/07/27 20:09:05;;;;;;;2.9;5.3;;;;;;;19.3;100;98550;;;;
2022/07/27 20:19:05;;;;;;;4.3;7.5;;;;;;;19.2;100;98570;;;;
2022/07/27 20:30:05;;;;;;;4.3;7.5;;;;;;;19.1;100;98580;;;;
2022/07/27 20:40:06;;;;;;;4.3;7.5;;;;;;;19.1;100;98580;;;;
2022/07/27 20:51:05;;;;;;;3.1;5.6;;;;;;;19;100;98600;;;;
2022/07/27 21:02:06;;;;;;;3.1;5.6;;;;;;;19;100;98610;;;;
2022/07/27 21:13:05;;;;;;;3.1;5.6;;;;;;;19;100;98610;;;;
2022/07/27 21:24:21;;;;;;;2.4;5.1;;;;;;;19;100;98620;;;;
2022/07/27 21:34:05;;;;;;;2.4;5.1;;;;;;;19;100;98620;;;;
2022/07/27 21:45:06;;;;;;;2.4;5.1;;;;;;;18.8;100;98620;;;;
2022/07/27 21:56:05;;;;;;;2.8;7.2;;;;;;;18.6;100;98630;;;;
2022/07/27 22:06:05;;;;;;;2.8;7.2;;;;;;;18.6;100;98640;;;;
2022/07/27 22:17:05;;;;;;;2.8;7.2;;;;;;;18.6;100;98660;;;;
2022/07/27 22:27:05;;;;;;;2.9;5.7;;;;;;;18.6;100;98670;;;;
2022/07/27 22:38:05;;;;;;;2.9;5.7;;;;;;;18.7;100;98680;;;;
2022/07/27 22:48:05;;;;;;;2.9;5.7;;;;;;;18.6;100;98680;;;;
2022/07/27 22:58:05;;;;;;;5.9;9.5;;;;;;;18.5;100;98690;;;;
2022/07/27 23:08:05;;;;;;;5.9;9.5;;;;;;;18.5;100;98690;;;;
2022/07/27 23:19:05;;;;;;;5.7;10.6;;;;;;;18.3;100;98690;;;;
2022/07/27 23:29:05;;;;;;;5.7;10.6;;;;;;;18.1;100;98700;;;;
2022/07/27 23:40:05;;;;;;;5.7;10.6;;;;;;;17.9;100;98700;;;;
2022/07/27 23:50:05;;;;;;;4.1;8.6;;;;;;;17.8;100;98700;;;;
